Time;durP1;ratioP1;P1;durP2;ratioP2;P2;SDS_P1;SDS_P2;PMS_P1;PMS_P2;Temp;Humidity;BMP_temperature;BMP_pressure;BME280_temperature;BME280_humidity;BME280_pressure;Samples;Min_cycle;Max_cycle;Signal;HPM_P1;HPM_P2
2022/06/25 00:03:46;;;;;;;;;;;18.80;99.90;;;;;;10209955;28;84159;-57
2022/06/25 00:08:48;;;;;;;;;;;18.80;99.90;;;;;;10210448;28;84023;-54
2022/06/25 00:13:48;;;;;;;;;;;18.90;99.90;;;;;;10208578;28;84274;-56
2022/06/25 00:18:49;;;;;;;;;;;18.90;99.90;;;;;;10224272;28;84198;-56
2022/06/25 00:23:50;;;;;;;;;;;18.90;99.90;;;;;;10216580;28;84122;-56
2022/06/25 00:28:50;;;;;;;;;;;18.90;99.90;;;;;;10210803;28;84945;-56
2022/06/25 00:33:51;;;;;;;;;;;18.80;99.90;;;;;;10174908;28;85670;-56
2022/06/25 00:38:51;;;;;;;;;;;18.80;99.90;;;;;;10168108;28;85602;-52
2022/06/25 00:43:52;;;;;;;;;;;18.80;99.90;;;;;;10170383;28;84203;-52
2022/06/25 00:48:52;;;;;;;;;;;18.70;99.90;;;;;;10169368;28;84955;-51
2022/06/25 00:53:56;;;;;;;;;;;18.70;99.90;;;;;;10167752;28;86348;-56
2022/06/25 00:58:58;;;;;;;;;;;18.70;99.90;;;;;;10167926;28;86207;-52
2022/06/25 01:03:58;;;;;;;;;;;18.60;99.90;;;;;;10167525;28;86020;-54
2022/06/25 01:09:00;;;;;;;;;;;18.60;99.90;;;;;;10187854;28;84152;-56
2022/06/25 01:14:10;;;;;;;;;;;18.60;99.90;;;;;;10207048;28;86076;-55
2022/06/25 01:19:12;;;;;;;;;;;18.60;99.90;;;;;;10191518;28;86993;-56
2022/06/25 01:24:13;;;;;;;;;;;18.50;99.90;;;;;;10196930;28;86645;-55
2022/06/25 01:29:14;;;;;;;;;;;18.50;99.90;;;;;;10167051;28;86252;-53
2022/06/25 01:34:14;;;;;;;;;;;18.40;99.90;;;;;;10167296;28;86279;-56
2022/06/25 01:39:15;;;;;;;;;;;18.40;99.90;;;;;;10167892;28;87087;-55
2022/06/25 01:44:15;;;;;;;;;;;18.40;99.90;;;;;;10167512;28;84025;-54
2022/06/25 01:49:16;;;;;;;;;;;18.40;99.90;;;;;;10165763;28;85792;-53
2022/06/25 01:54:17;;;;;;;;;;;18.40;99.90;;;;;;10165854;28;86916;-54
2022/06/25 01:59:19;;;;;;;;;;;18.40;99.90;;;;;;10166145;28;85558;-56
2022/06/25 02:04:20;;;;;;;;;;;18.30;99.90;;;;;;10211137;23;85756;-47
2022/06/25 02:09:20;;;;;;;;;;;18.30;99.90;;;;;;10207783;28;85035;-51
2022/06/25 02:14:21;;;;;;;;;;;18.30;99.90;;;;;;10193475;28;86082;-51
2022/06/25 02:19:21;;;;;;;;;;;18.20;99.90;;;;;;10207818;28;85048;-51
2022/06/25 02:24:22;;;;;;;;;;;18.20;99.90;;;;;;10206517;28;84897;-51
2022/06/25 02:29:22;;;;;;;;;;;18.20;99.90;;;;;;10190020;28;84958;-47
2022/06/25 02:34:23;;;;;;;;;;;18.10;99.90;;;;;;10190347;28;86962;-51
2022/06/25 02:39:23;;;;;;;;;;;18.00;99.90;;;;;;10214224;28;86855;-53
2022/06/25 02:44:24;;;;;;;;;;;18.00;99.90;;;;;;10217478;28;86009;-51
2022/06/25 02:49:29;;;;;;;;;;;17.90;99.90;;;;;;10215653;28;86205;-49
2022/06/25 02:54:30;;;;;;;;;;;17.90;99.90;;;;;;10199556;28;86754;-50
2022/06/25 02:59:30;;;;;;;;;;;17.80;99.90;;;;;;10188070;28;87027;-51
2022/06/25 03:04:33;;;;;;;;;;;17.80;99.90;;;;;;10187577;28;86777;-48
2022/06/25 03:09:34;;;;;;;;;;;17.80;99.90;;;;;;10168204;28;86553;-49
2022/06/25 03:14:38;;;;;;;;;;;17.70;99.90;;;;;;10167125;28;86784;-50
2022/06/25 03:19:39;;;;;;;;;;;17.70;99.90;;;;;;10219028;28;87722;-48
2022/06/25 03:24:53;;;;;;;;;;;17.70;99.90;;;;;;10209548;28;86697;-49
2022/06/25 03:29:54;;;;;;;;;;;17.70;99.90;;;;;;10201422;28;86738;-52
2022/06/25 03:34:55;;;;;;;;;;;17.70;99.90;;;;;;10226498;28;86009;-53
2022/06/25 03:39:57;;;;;;;;;;;17.70;99.90;;;;;;10227523;28;86100;-53
2022/06/25 03:44:58;;;;;;;;;;;17.70;99.90;;;;;;10187066;28;86730;-48
2022/06/25 03:50:07;;;;;;;;;;;17.80;99.90;;;;;;10186814;28;85964;-54
2022/06/25 03:55:08;;;;;;;;;;;17.80;99.90;;;;;;10186783;28;86951;-49
2022/06/25 04:00:09;;;;;;;;;;;17.80;99.90;;;;;;10186181;28;87225;-49
2022/06/25 04:05:24;;;;;;;;;;;17.80;99.90;;;;;;10186304;28;87025;-47
2022/06/25 04:10:25;;;;;;;;;;;17.90;99.90;;;;;;10186136;28;86969;-48
2022/06/25 04:15:25;;;;;;;;;;;17.90;99.90;;;;;;10185511;28;87114;-51
2022/06/25 04:20:26;;;;;;;;;;;18.10;99.90;;;;;;10204186;28;84728;-50
2022/06/25 04:25:27;;;;;;;;;;;18.20;99.90;;;;;;10187534;28;86037;-49
2022/06/25 04:30:28;;;;;;;;;;;18.20;99.90;;;;;;10185441;28;85775;-49
2022/06/25 04:35:29;;;;;;;;;;;18.20;99.90;;;;;;10189662;28;86837;-47
2022/06/25 04:40:32;;;;;;;;;;;18.20;99.90;;;;;;10223684;28;85822;-47
2022/06/25 04:45:34;;;;;;;;;;;18.30;99.90;;;;;;10201802;28;85717;-47
2022/06/25 04:50:50;;;;;;;;;;;18.30;99.90;;;;;;10190681;28;85780;-48
2022/06/25 04:55:51;;;;;;;;;;;18.40;99.90;;;;;;10190973;28;86890;-48
2022/06/25 05:00:52;;;;;;;;;;;18.50;99.90;;;;;;10190311;28;86734;-49
2022/06/25 05:05:53;;;;;;;;;;;18.60;99.90;;;;;;10189801;28;86896;-47
2022/06/25 05:10:53;;;;;;;;;;;18.80;99.90;;;;;;10207732;28;84228;-47
2022/06/25 05:15:54;;;;;;;;;;;19.00;91.80;;;;;;10189687;28;86872;-52
2022/06/25 05:20:55;;;;;;;;;;;19.10;17.40;;;;;;10191059;28;85479;-47
2022/06/25 05:25:56;;;;;;;;;;;19.20;1.00;;;;;;10211083;28;85830;-50
2022/06/25 05:30:56;;;;;;;;;;;19.30;1.00;;;;;;10199479;28;86916;-49
2022/06/25 05:35:57;;;;;;;;;;;19.50;1.00;;;;;;10189988;28;85856;-48
2022/06/25 05:40:58;;;;;;;;;;;19.70;1.00;;;;;;10188497;28;84831;-54
2022/06/25 05:45:58;;;;;;;;;;;19.80;1.00;;;;;;10206664;28;85019;-52
2022/06/25 05:50:59;;;;;;;;;;;20.00;1.00;;;;;;10207174;28;84247;-50
2022/06/25 05:56:00;;;;;;;;;;;20.20;1.00;;;;;;10205667;28;84008;-52
2022/06/25 06:01:00;;;;;;;;;;;20.40;1.00;;;;;;10189411;28;85139;-48
2022/06/25 06:06:01;;;;;;;;;;;20.60;1.00;;;;;;10188547;28;84152;-53
2022/06/25 06:11:01;;;;;;;;;;;20.70;1.00;;;;;;10206674;28;84957;-52
2022/06/25 06:16:02;;;;;;;;;;;20.80;1.00;;;;;;10205336;28;84835;-51
2022/06/25 06:21:03;;;;;;;;;;;21.00;1.00;;;;;;10182365;28;84121;-51
2022/06/25 06:26:03;;;;;;;;;;;21.30;1.00;;;;;;10208231;28;84225;-54
2022/06/25 06:31:04;;;;;;;;;;;21.50;99.90;;;;;;10214448;28;84946;-55
2022/06/25 06:36:04;;;;;;;;;;;21.60;99.90;;;;;;10203920;28;85972;-60
2022/06/25 06:41:05;;;;;;;;;;;21.40;99.90;;;;;;10188017;28;85006;-58
2022/06/25 06:46:06;;;;;;;;;;;21.50;1.00;;;;;;10191131;28;84961;-55
2022/06/25 06:51:07;;;;;;;;;;;21.50;99.90;;;;;;10201562;28;84953;-52
2022/06/25 06:56:07;;;;;;;;;;;21.50;99.90;;;;;;10203850;28;84951;-48
2022/06/25 07:01:08;;;;;;;;;;;21.80;99.90;;;;;;10219167;28;84266;-47
2022/06/25 07:06:08;;;;;;;;;;;22.20;99.90;;;;;;10245288;28;84791;-49
2022/06/25 07:16:29;;;;;;;;;;;22.60;1.00;;;;;;10187995;28;84926;-52
2022/06/25 07:21:29;;;;;;;;;;;22.90;1.00;;;;;;10205480;28;84901;-49
2022/06/25 07:26:30;;;;;;;;;;;23.10;1.00;;;;;;10204638;28;84581;-52
2022/06/25 07:31:30;;;;;;;;;;;23.40;99.90;;;;;;10205394;28;84816;-49
2022/06/25 07:36:31;;;;;;;;;;;23.80;92.30;;;;;;10204818;28;85029;-51
2022/06/25 07:41:32;;;;;;;;;;;24.10;1.00;;;;;;10205301;28;84337;-50
2022/06/25 07:46:33;;;;;;;;;;;24.60;1.00;;;;;;10204928;28;84167;-52
2022/06/25 07:56:52;;;;;;;;;;;25.60;99.90;;;;;;10175691;28;84277;-55
2022/06/25 08:01:54;;;;;;;;;;;26.50;1.00;;;;;;10203564;28;85009;-52
2022/06/25 08:06:56;;;;;;;;;;;26.80;1.00;;;;;;10238057;23;84378;-50
2022/06/25 08:11:57;;;;;;;;;;;27.00;1.00;;;;;;10205071;28;84459;-50
2022/06/25 08:16:57;;;;;;;;;;;27.50;1.00;;;;;;10204083;28;84921;-55
2022/06/25 08:21:58;;;;;;;;;;;27.30;1.00;;;;;;10210870;28;84727;-55
2022/06/25 08:26:58;;;;;;;;;;;26.90;1.00;;;;;;10212019;28;85777;-50
2022/06/25 08:31:59;;;;;;;;;;;27.60;1.00;;;;;;10210944;28;84967;-49
2022/06/25 08:36:59;;;;;;;;;;;28.20;99.90;;;;;;10210654;28;84918;-49
2022/06/25 08:42:01;;;;;;;;;;;28.50;99.90;;;;;;10209270;28;87152;-53
2022/06/25 08:47:02;;;;;;;;;;;28.30;1.00;;;;;;10211624;28;85044;-52
2022/06/25 08:52:04;;;;;;;;;;;28.90;1.00;;;;;;10211053;28;84907;-54
2022/06/25 08:57:06;;;;;;;;;;;29.70;1.00;;;;;;10210853;28;84162;-48
2022/06/25 09:02:06;;;;;;;;;;;29.80;1.00;;;;;;10209804;28;84967;-53
2022/06/25 09:07:17;;;;;;;;;;;30.30;1.00;;;;;;10210608;28;84983;-51
2022/06/25 09:12:18;;;;;;;;;;;29.80;99.90;;;;;;10209446;28;84111;-51
2022/06/25 09:17:19;;;;;;;;;;;30.70;99.90;;;;;;10210153;28;84163;-52
2022/06/25 09:22:22;;;;;;;1.40;1.10;;;31.50;99.90;;;;;;10210771;28;84182;-53
2022/06/25 09:27:37;;;;;;;2.05;1.23;;;32.20;20.50;;;;;;10209038;28;84813;-53
2022/06/25 09:32:55;;;;;;;1.60;1.38;;;32.40;7.80;;;;;;10207180;28;84902;-50
2022/06/25 09:38:14;;;;;;;1.88;1.42;;;32.50;1.00;;;;;;10207582;28;86133;-49
2022/06/25 09:43:15;;;;;;;;;;;31.10;24.10;;;;;;10207646;28;85094;-50
2022/06/25 09:48:27;;;;;;;2.20;1.10;;;30.70;23.70;;;;;;10209394;28;84301;-56
2022/06/25 09:53:27;;;;;;;;;;;29.20;1.00;;;;;;10209162;28;84249;-51
2022/06/25 09:58:30;;;;;;;;;;;28.70;99.90;;;;;;10194809;28;84913;-49
2022/06/25 10:03:31;;;;;;;;;;;28.50;99.90;;;;;;10168685;28;84192;-53
2022/06/25 10:08:32;;;;;;;;;;;29.00;99.90;;;;;;10169837;28;84908;-51
2022/06/25 10:13:33;;;;;;;1.60;1.40;;;30.10;99.90;;;;;;10172595;28;84069;-53
2022/06/25 10:18:36;;;;;;;1.90;1.50;;;31.40;25.90;;;;;;10210067;28;84982;-52
2022/06/25 10:23:42;;;;;;;2.20;1.40;;;31.40;1.00;;;;;;10210178;28;85169;-52
2022/06/25 10:28:43;;;;;;;1.77;1.23;;;31.70;1.00;;;;;;10210131;28;85368;-51
2022/06/25 10:34:13;;;;;;;2.50;1.67;;;31.40;1.00;;;;;;10175030;28;84874;-49
2022/06/25 10:39:33;;;;;;;2.47;1.40;;;31.00;1.00;;;;;;10161220;28;84867;-52
2022/06/25 10:44:33;;;;;;;;;;;30.70;1.00;;;;;;10166529;28;84237;-53
2022/06/25 10:49:34;;;;;;;1.30;1.20;;;31.10;1.00;;;;;;10176177;28;84062;-48
2022/06/25 10:54:37;;;;;;;1.30;0.98;;;32.30;1.00;;;;;;10205195;28;84295;-56
2022/06/25 10:59:39;;;;;;;2.33;1.40;;;32.50;1.00;;;;;;10206430;28;84293;-55
2022/06/25 11:04:53;;;;;;;1.25;1.10;;;33.30;1.00;;;;;;10205353;28;84888;-55
2022/06/25 11:09:57;;;;;;;1.25;1.05;;;33.10;1.00;;;;;;10203220;28;87084;-52
2022/06/25 11:14:59;;;;;;;1.95;1.10;;;33.00;1.00;;;;;;10199069;28;86940;-53
2022/06/25 11:20:10;;;;;;;1.58;1.13;;;33.70;1.00;;;;;;10204892;28;84268;-54
2022/06/25 11:30:30;;;;;;;1.42;0.90;;;33.60;1.00;;;;;;10203884;28;84258;-54
2022/06/25 11:35:42;;;;;;;2.50;1.33;;;34.70;1.00;;;;;;10204045;28;84199;-50
2022/06/25 11:40:44;;;;;;;2.42;1.10;;;34.70;1.00;;;;;;10202140;28;84551;-53
2022/06/25 11:45:50;;;;;;;1.30;1.13;;;35.00;1.00;;;;;;10198981;28;85010;-54
2022/06/25 11:50:53;;;;;;;2.50;1.10;;;35.60;1.00;;;;;;10204255;28;84163;-52
2022/06/25 11:55:57;;;;;;;1.95;0.93;;;35.50;1.00;;;;;;10208229;28;85342;-51
2022/06/25 12:01:00;;;;;;;3.08;1.02;;;36.80;1.00;;;;;;10209162;28;84848;-54
2022/06/25 12:06:02;;;;;;;2.38;1.05;;;35.70;1.00;;;;;;10208440;28;84384;-54
2022/06/25 12:11:03;;;;;;;2.35;1.08;;;35.00;1.00;;;;;;10211075;28;84237;-53
2022/06/25 12:16:04;;;;;;;0.90;0.90;;;34.80;1.00;;;;;;10209067;28;84360;-53
2022/06/25 12:21:06;;;;;;;1.00;0.80;;;36.10;1.00;;;;;;10211856;28;84853;-55
2022/06/25 12:26:07;;;;;;;1.50;1.25;;;35.10;1.00;;;;;;10210502;28;84844;-50
2022/06/25 12:31:11;;;;;;;1.40;1.20;;;35.60;1.00;;;;;;10209782;28;84892;-56
2022/06/25 12:36:19;;;;;;;2.25;1.20;;;35.90;1.00;;;;;;10205754;28;85015;-54
2022/06/25 12:41:20;;;;;;;1.45;0.85;;;34.90;1.00;;;;;;10207969;28;84253;-52
2022/06/25 12:46:20;;;;;;;1.15;1.05;;;34.40;1.00;;;;;;10210590;28;84835;-52
2022/06/25 12:51:21;;;;;;;2.05;1.02;;;35.30;1.00;;;;;;10209693;28;84232;-52
2022/06/25 12:56:22;;;;;;;1.52;0.95;;;35.70;1.00;;;;;;10207180;28;84331;-55
2022/06/25 13:01:27;;;;;;;1.73;1.23;;;36.10;1.00;;;;;;10210605;28;84051;-56
2022/06/25 13:06:28;;;;;;;1.60;1.00;;;36.90;1.00;;;;;;10208633;28;84282;-52
2022/06/25 13:11:29;;;;;;;1.20;0.98;;;37.40;1.00;;;;;;10208791;28;84257;-53
2022/06/25 13:16:30;;;;;;;1.10;1.00;;;36.60;1.00;;;;;;10207951;28;84935;-51
2022/06/25 13:21:30;;;;;;;1.25;0.98;;;37.40;1.00;;;;;;10208327;28;84982;-52
2022/06/25 13:26:31;;;;;;;1.35;1.00;;;36.90;1.00;;;;;;10207285;28;84932;-54
2022/06/25 13:31:32;;;;;;;1.20;0.90;;;37.50;1.00;;;;;;10208070;28;85207;-50
2022/06/25 13:36:34;;;;;;;1.23;0.90;;;35.90;1.00;;;;;;10207777;28;84829;-52
2022/06/25 13:41:35;;;;;;;2.47;1.13;;;34.70;1.00;;;;;;10202262;28;84865;-57
2022/06/25 13:46:36;;;;;;;1.38;1.02;;;34.90;1.00;;;;;;10202214;28;84892;-53
2022/06/25 13:51:38;;;;;;;1.27;1.00;;;33.90;1.00;;;;;;10206409;28;84290;-55
2022/06/25 13:56:38;;;;;;;0.80;0.80;;;33.50;1.00;;;;;;10205806;28;84896;-57
2022/06/25 14:01:39;;;;;;;2.55;1.10;;;32.60;1.00;;;;;;10202259;28;84449;-51
2022/06/25 14:06:40;;;;;;;1.98;1.23;;;32.10;1.00;;;;;;10204788;28;84126;-58
2022/06/25 14:11:42;;;;;;;1.33;0.80;;;31.80;1.00;;;;;;10220068;22;84974;-52
2022/06/25 14:16:42;;;;;;;2.25;1.50;;;31.20;1.00;;;;;;10204487;28;85220;-55
2022/06/25 14:21:44;;;;;;;1.20;1.10;;;31.10;1.00;;;;;;10209025;28;84155;-55
2022/06/25 14:26:45;;;;;;;1.60;1.00;;;30.80;1.00;;;;;;10208915;28;84107;-54
2022/06/25 14:31:46;;;;;;;;;;;30.60;1.00;;;;;;10208955;28;84130;-53
2022/06/25 14:42:22;;;;;;;;;;;30.10;1.00;;;;;;10163636;28;85028;-53
2022/06/25 14:47:23;;;;;;;;;;;29.90;1.00;;;;;;10207976;28;84115;-52
2022/06/25 14:52:23;;;;;;;;;;;29.60;1.00;;;;;;10207899;28;85049;-53
2022/06/25 14:57:24;;;;;;;;;;;29.60;1.00;;;;;;10205395;28;86096;-53
2022/06/25 15:02:24;;;;;;;;;;;29.50;1.00;;;;;;10211316;28;84561;-58
2022/06/25 15:07:27;;;;;;;;;;;29.20;1.00;;;;;;10211187;28;84060;-58
2022/06/25 15:12:28;;;;;;;;;;;29.20;1.00;;;;;;10168123;28;86987;-53
2022/06/25 15:17:29;;;;;;;;;;;29.10;1.00;;;;;;10170741;28;84662;-50
2022/06/25 15:22:30;;;;;;;;;;;29.00;1.00;;;;;;10205938;28;84183;-63
2022/06/25 15:27:30;;;;;;;;;;;28.80;1.00;;;;;;10205381;28;84582;-55
2022/06/25 15:32:31;;;;;;;;;;;28.60;1.00;;;;;;10211371;28;84813;-53
2022/06/25 15:37:32;;;;;;;;;;;28.40;1.00;;;;;;10212611;28;84095;-60
2022/06/25 15:42:32;;;;;;;;;;;28.20;1.00;;;;;;10212453;28;87325;-59
2022/06/25 15:47:34;;;;;;;;;;;28.30;1.00;;;;;;10191286;28;84779;-54
2022/06/25 15:52:34;;;;;;;;;;;28.30;1.00;;;;;;10195482;28;84059;-54
2022/06/25 15:57:35;;;;;;;;;;;28.30;1.00;;;;;;10187143;28;84041;-51
2022/06/25 16:02:35;;;;;;;;;;;28.30;1.00;;;;;;10183569;28;84988;-52
2022/06/25 16:07:36;;;;;;;;;;;28.20;1.00;;;;;;10185717;28;85022;-56
2022/06/25 16:12:37;;;;;;;;;;;28.20;1.00;;;;;;10185116;28;84894;-54
2022/06/25 16:17:38;;;;;;;;;;;28.20;1.00;;;;;;10176175;28;84042;-57
2022/06/25 16:22:39;;;;;;;;;;;27.90;1.00;;;;;;10202625;28;84797;-54
2022/06/25 16:27:40;;;;;;;;;;;27.80;1.00;;;;;;10246473;28;84693;-52
2022/06/25 16:32:40;;;;;;;;;;;27.80;1.00;;;;;;10219560;28;85188;-57
2022/06/25 16:37:41;;;;;;;;;;;27.90;1.00;;;;;;10197745;28;84289;-48
2022/06/25 16:42:41;;;;;;;;;;;27.80;1.00;;;;;;10207007;28;84969;-48
2022/06/25 16:47:42;;;;;;;;;;;27.30;1.00;;;;;;10209804;28;84457;-52
2022/06/25 16:52:43;;;;;;;;;;;27.10;1.00;;;;;;10207156;28;84638;-51
2022/06/25 16:57:43;;;;;;;;;;;27.30;1.00;;;;;;10211689;28;84726;-50
2022/06/25 17:02:44;;;;;;;;;;;27.40;1.00;;;;;;10210157;28;84256;-49
2022/06/25 17:07:46;;;;;;;;;;;27.30;1.00;;;;;;10208339;28;84692;-51
2022/06/25 17:12:47;;;;;;;;;;;27.40;1.00;;;;;;10207571;28;84260;-48
2022/06/25 17:17:47;;;;;;;;;;;27.30;1.00;;;;;;10208728;28;84963;-50
2022/06/25 17:22:48;;;;;;;;;;;27.30;1.00;;;;;;10207573;28;85023;-55
2022/06/25 17:27:49;;;;;;;;;;;27.20;1.00;;;;;;10208683;28;85154;-51
2022/06/25 17:32:50;;;;;;;;;;;27.10;1.00;;;;;;10213369;28;84903;-51
2022/06/25 17:37:53;;;;;;;;;;;27.20;1.00;;;;;;10208052;28;84950;-49
2022/06/25 17:42:54;;;;;;;;;;;27.10;1.00;;;;;;10206290;28;84932;-52
2022/06/25 17:47:54;;;;;;;;;;;27.20;1.00;;;;;;10207746;28;84534;-50
2022/06/25 17:52:55;;;;;;;;;;;27.00;1.00;;;;;;10207955;28;86695;-53
2022/06/25 17:57:55;;;;;;;;;;;27.00;1.00;;;;;;10207949;28;84499;-52
2022/06/25 18:02:56;;;;;;;;;;;27.00;1.00;;;;;;10215666;28;84838;-53
2022/06/25 18:07:57;;;;;;;;;;;26.80;1.00;;;;;;10219921;28;84750;-55
2022/06/25 18:12:57;;;;;;;;;;;26.80;1.00;;;;;;10212286;28;84286;-53
2022/06/25 18:17:58;;;;;;;;;;;26.80;3.20;;;;;;10205711;28;84900;-50
2022/06/25 18:22:58;;;;;;;;;;;26.80;23.30;;;;;;10197994;28;84933;-51
2022/06/25 18:27:59;;;;;;;;;;;26.80;57.90;;;;;;10205674;28;84308;-50
2022/06/25 18:32:59;;;;;;;;;;;26.70;74.70;;;;;;10214438;28;84246;-53
2022/06/25 18:38:00;;;;;;;;;;;26.60;99.90;;;;;;10198104;28;84649;-51
2022/06/25 18:43:00;;;;;;;;;;;26.50;99.90;;;;;;10190427;28;85394;-54
2022/06/25 18:48:01;;;;;;;;;;;26.40;99.90;;;;;;10203374;28;84410;-52
2022/06/25 18:53:02;;;;;;;;;;;26.40;99.90;;;;;;10196818;28;87023;-53
2022/06/25 18:58:03;;;;;;;;;;;26.30;99.90;;;;;;10198623;28;84271;-52
2022/06/25 19:03:03;;;;;;;;;;;26.30;99.90;;;;;;10200750;28;85489;-51
2022/06/25 19:08:04;;;;;;;;;;;26.30;99.90;;;;;;10198768;28;84439;-49
2022/06/25 19:13:04;;;;;;;;;;;26.10;1.00;;;;;;10188607;28;86347;-59
2022/06/25 19:18:05;;;;;;;;;;;25.90;1.00;;;;;;10214199;28;85207;-60
2022/06/25 19:23:06;;;;;;;;;;;25.80;1.00;;;;;;10235707;28;83950;-59
2022/06/25 19:28:07;;;;;;;;;;;25.70;1.00;;;;;;10215142;28;84403;-57
2022/06/25 19:33:07;;;;;;;;;;;25.60;1.00;;;;;;10238901;28;86607;-62
2022/06/25 19:38:08;;;;;;;;;;;25.50;1.00;;;;;;10227155;28;84546;-48
2022/06/25 19:43:09;;;;;;;;;;;25.40;1.00;;;;;;10205060;28;84201;-61
2022/06/25 19:48:09;;;;;;;;;;;25.20;99.90;;;;;;10215023;28;84145;-58
2022/06/25 19:53:10;;;;;;;;;;;25.10;99.90;;;;;;10207520;28;84191;-57
2022/06/25 19:58:10;;;;;;;;;;;25.00;1.00;;;;;;10202935;28;85288;-57
2022/06/25 20:03:11;;;;;;;;;;;24.90;1.00;;;;;;10207580;28;84236;-58
2022/06/25 20:08:12;;;;;;;;;;;24.90;91.50;;;;;;10206304;28;86541;-57
2022/06/25 20:13:13;;;;;;;;;;;24.70;99.90;;;;;;10234842;22;84164;-54
2022/06/25 20:18:13;;;;;;;;;;;24.70;99.90;;;;;;10229515;28;84435;-56
2022/06/25 20:23:14;;;;;;;;;;;24.70;1.00;;;;;;10235790;28;84854;-53
2022/06/25 20:28:14;;;;;;;;;;;24.50;1.00;;;;;;10236819;28;84416;-53
2022/06/25 20:33:15;;;;;;;;;;;24.50;1.00;;;;;;10228827;28;85160;-56
2022/06/25 20:38:16;;;;;;;;;;;24.40;1.00;;;;;;10220349;28;84250;-55
2022/06/25 20:43:16;;;;;;;;;;;24.30;99.90;;;;;;10233562;28;84298;-53
2022/06/25 20:48:17;;;;;;;;;;;24.30;1.00;;;;;;10240781;28;86610;-54
2022/06/25 20:53:18;;;;;;;;;;;24.10;1.00;;;;;;10213208;28;84132;-53
2022/06/25 20:58:18;;;;;;;;;;;24.00;99.90;;;;;;10227053;28;84445;-55
2022/06/25 21:08:39;;;;;;;;;;;23.90;99.90;;;;;;10237400;28;84949;-52
2022/06/25 21:13:40;;;;;;;;;;;23.70;99.90;;;;;;10170647;28;86969;-55
2022/06/25 21:18:40;;;;;;;;;;;23.60;99.90;;;;;;10171309;28;84840;-52
2022/06/25 21:23:41;;;;;;;;;;;23.50;1.00;;;;;;10171370;28;83808;-56
2022/06/25 21:28:41;;;;;;;;;;;23.50;1.00;;;;;;10172120;28;84186;-53
2022/06/25 21:33:42;;;;;;;;;;;23.40;1.00;;;;;;10171710;28;84259;-54
2022/06/25 21:38:44;;;;;;;;;;;23.40;1.00;;;;;;10171688;28;84205;-56
2022/06/25 21:43:45;;;;;;;;;;;23.20;57.80;;;;;;10194181;28;84254;-57
2022/06/25 21:48:45;;;;;;;;;;;23.20;99.90;;;;;;10212307;28;84116;-56
2022/06/25 21:53:46;;;;;;;;;;;23.20;99.90;;;;;;10211747;28;84221;-57
2022/06/25 21:58:47;;;;;;;;;;;23.20;1.00;;;;;;10208855;28;85408;-56
2022/06/25 22:03:48;;;;;;;;;;;23.10;1.00;;;;;;10210844;28;84593;-55
2022/06/25 22:08:48;;;;;;;;;;;23.10;99.90;;;;;;10210762;28;84175;-54
2022/06/25 22:13:49;;;;;;;;;;;23.00;1.00;;;;;;10209543;28;84918;-50
2022/06/25 22:18:50;;;;;;;;;;;22.80;1.00;;;;;;10208146;28;84871;-52
2022/06/25 22:23:50;;;;;;;;;;;22.70;1.00;;;;;;10210005;28;84141;-57
2022/06/25 22:28:51;;;;;;;;;;;22.70;1.00;;;;;;10209931;28;85303;-56
2022/06/25 22:33:51;;;;;;;;;;;22.60;1.00;;;;;;10182036;28;86016;-57
2022/06/25 22:38:52;;;;;;;;;;;22.60;19.60;;;;;;10170199;28;84962;-54
2022/06/25 22:43:52;;;;;;;;;;;22.40;99.90;;;;;;10169032;28;84893;-55
2022/06/25 22:48:53;;;;;;;;;;;22.30;99.90;;;;;;10169003;28;84896;-54
2022/06/25 22:53:53;;;;;;;;;;;22.20;99.90;;;;;;10186199;28;84061;-53
2022/06/25 22:58:54;;;;;;;;;;;22.00;1.00;;;;;;10209060;28;84942;-52
2022/06/25 23:03:57;;;;;;;;;;;21.80;1.00;;;;;;10208844;28;84395;-54
2022/06/25 23:08:58;;;;;;;;;;;21.60;1.00;;;;;;10207152;28;85336;-57
2022/06/25 23:13:58;;;;;;;;;;;21.50;1.00;;;;;;10207351;28;87251;-52
2022/06/25 23:18:59;;;;;;;;;;;21.40;1.00;;;;;;10208588;28;84854;-51
2022/06/25 23:24:00;;;;;;;;;;;21.30;29.50;;;;;;10208645;28;85024;-54
2022/06/25 23:29:00;;;;;;;;;;;21.30;59.70;;;;;;10173136;28;84266;-57
2022/06/25 23:34:01;;;;;;;;;;;21.20;99.90;;;;;;10165467;28;86330;-53
2022/06/25 23:39:01;;;;;;;;;;;21.20;99.90;;;;;;10167812;28;84033;-55
2022/06/25 23:44:02;;;;;;;;;;;21.10;99.90;;;;;;10191022;28;84099;-56
2022/06/25 23:49:03;;;;;;;;;;;21.10;99.90;;;;;;10205724;28;85303;-55
2022/06/25 23:54:03;;;;;;;;;;;21.20;99.90;;;;;;10206100;28;84057;-55
2022/06/25 23:59:04;;;;;;;;;;;21.20;99.90;;;;;;10203526;28;84033;-54
